createdAt,value
2023-03-12T00:01:39.959Z,66.16
2023-03-12T00:04:02.502Z,66.84
2023-03-12T00:06:23.951Z,67.00
2023-03-12T00:08:45.456Z,66.43
2023-03-12T00:11:12.557Z,66.18
2023-03-12T00:13:34.344Z,66.05
2023-03-12T00:15:55.810Z,66.54
2023-03-12T00:18:17.837Z,66.17
2023-03-12T00:20:39.253Z,66.20
2023-03-12T00:23:00.777Z,66.69
2023-03-12T00:25:22.248Z,66.96
2023-03-12T00:27:43.741Z,66.62
2023-03-12T00:30:06.142Z,68.11
2023-03-12T00:32:27.616Z,67.48
2023-03-12T00:34:53.572Z,67.09
2023-03-12T00:37:15.028Z,66.90
2023-03-12T00:39:37.110Z,66.95
2023-03-12T00:41:58.532Z,67.36
2023-03-12T00:44:20.136Z,67.01
2023-03-12T00:46:41.663Z,67.31
2023-03-12T00:49:03.113Z,67.70
2023-03-12T00:51:24.616Z,67.81
2023-03-12T00:53:46.251Z,70.80
2023-03-12T00:56:08.020Z,69.26
2023-03-12T00:58:29.541Z,69.05
2023-03-12T01:00:51.041Z,69.33
2023-03-12T01:03:13.012Z,70.48
2023-03-12T01:05:37.755Z,69.34
2023-03-12T01:07:59.345Z,69.38
2023-03-12T01:10:21.909Z,69.01
2023-03-12T01:12:43.516Z,68.76
2023-03-12T01:15:05.584Z,68.47
2023-03-12T01:17:27.083Z,69.08
2023-03-12T01:19:48.570Z,69.19
2023-03-12T01:22:10.105Z,68.40
2023-03-12T01:24:31.673Z,68.39
2023-03-12T01:26:53.172Z,69.53
2023-03-12T01:29:14.641Z,68.86
2023-03-12T01:31:36.221Z,68.93
2023-03-12T01:33:57.769Z,68.78
2023-03-12T01:36:24.861Z,69.12
2023-03-12T01:38:46.971Z,69.55
2023-03-12T01:41:08.413Z,69.91
2023-03-12T01:43:33.774Z,70.59
2023-03-12T01:46:16.467Z,70.76
2023-03-12T01:48:45.125Z,69.92
2023-03-12T01:51:09.084Z,70.24
2023-03-12T01:53:31.604Z,70.65
2023-03-12T01:55:53.069Z,69.86
2023-03-12T01:58:15.343Z,70.43
2023-03-12T02:00:36.767Z,69.80
2023-03-12T02:03:04.630Z,70.68
2023-03-12T02:05:53.042Z,71.42
2023-03-12T02:08:17.161Z,71.09
2023-03-12T02:10:38.843Z,72.08
2023-03-12T02:13:00.310Z,71.20
2023-03-12T02:15:22.157Z,71.09
2023-03-12T02:17:44.112Z,71.02
2023-03-12T02:20:11.827Z,71.25
2023-03-12T02:22:36.092Z,71.07
2023-03-12T02:25:04.512Z,70.94
2023-03-12T02:27:26.116Z,70.42
2023-03-12T02:29:47.626Z,70.58
2023-03-12T02:32:15.752Z,70.47
2023-03-12T02:34:37.271Z,70.37
2023-03-12T02:36:58.724Z,70.92
2023-03-12T02:39:20.615Z,70.77
2023-03-12T02:41:46.372Z,71.00
2023-03-12T02:44:23.133Z,70.81
2023-03-12T02:46:50.880Z,70.96
2023-03-12T02:49:13.352Z,71.39
2023-03-12T02:51:35.112Z,71.57
2023-03-12T02:53:56.616Z,71.32
2023-03-12T02:56:18.057Z,71.33
2023-03-12T02:58:39.512Z,70.90
2023-03-12T03:01:01.008Z,71.16
2023-03-12T03:03:22.538Z,70.67
2023-03-12T03:05:44.379Z,70.45
2023-03-12T03:08:06.576Z,70.58
2023-03-12T03:10:28.029Z,70.37
2023-03-12T03:12:50.097Z,70.03
2023-03-12T03:15:12.044Z,70.35
2023-03-12T03:17:33.495Z,70.41
2023-03-12T03:19:55.426Z,70.56
2023-03-12T03:22:17.081Z,70.39
2023-03-12T03:24:38.597Z,70.25
2023-03-12T03:27:00.088Z,70.39
2023-03-12T03:29:21.825Z,70.10
2023-03-12T03:31:43.432Z,70.47
2023-03-12T03:34:04.934Z,70.09
2023-03-12T03:36:26.736Z,70.34
2023-03-12T03:38:49.860Z,70.06
2023-03-12T03:41:11.290Z,70.32
2023-03-12T03:43:33.114Z,70.28
2023-03-12T03:45:59.111Z,70.53
2023-03-12T03:48:20.583Z,70.22
2023-03-12T03:50:42.070Z,69.89
2023-03-12T03:53:03.746Z,70.21
2023-03-12T03:55:25.794Z,70.02
2023-03-12T03:57:48.189Z,70.26
2023-03-12T04:00:13.115Z,70.30
2023-03-12T04:02:35.054Z,70.00
2023-03-12T04:04:59.911Z,69.94
2023-03-12T04:07:21.458Z,70.40
2023-03-12T04:09:43.526Z,70.21
2023-03-12T04:12:05.178Z,70.12
2023-03-12T04:14:26.634Z,69.72
2023-03-12T04:16:48.089Z,69.68
2023-03-12T04:19:09.603Z,69.74
2023-03-12T04:21:31.041Z,69.62
2023-03-12T04:23:52.530Z,69.79
2023-03-12T04:26:14.097Z,69.61
2023-03-12T04:28:36.297Z,69.56
2023-03-12T04:31:03.472Z,70.01
2023-03-12T04:33:26.155Z,70.08
2023-03-12T04:35:52.637Z,69.65
2023-03-12T04:38:14.120Z,70.24
2023-03-12T04:40:35.599Z,69.84
2023-03-12T04:42:57.053Z,69.63
2023-03-12T04:45:18.574Z,70.03
2023-03-12T04:47:40.040Z,70.08
2023-03-12T04:50:01.494Z,69.86
2023-03-12T04:52:23.022Z,70.20
2023-03-12T04:54:46.805Z,70.49
2023-03-12T04:57:09.803Z,70.19
2023-03-12T04:59:31.357Z,70.37
2023-03-12T05:01:52.932Z,70.42
2023-03-12T05:04:14.553Z,70.33
2023-03-12T05:06:36.099Z,71.23
2023-03-12T05:08:58.034Z,71.13
2023-03-12T05:11:20.357Z,71.48
2023-03-12T05:13:42.220Z,71.60
2023-03-12T05:16:04.062Z,71.67
2023-03-12T05:18:26.521Z,71.50
2023-03-12T05:20:57.248Z,71.68
2023-03-12T05:23:18.680Z,71.36
2023-03-12T05:25:41.129Z,72.31
2023-03-12T05:28:02.573Z,73.56
2023-03-12T05:30:24.065Z,73.07
2023-03-12T05:32:45.583Z,72.24
2023-03-12T05:35:07.419Z,72.44
2023-03-12T05:37:28.861Z,72.54
2023-03-12T05:39:50.379Z,72.71
2023-03-12T05:42:11.834Z,72.07
2023-03-12T05:44:35.428Z,72.71
2023-03-12T05:46:58.959Z,74.19
2023-03-12T05:49:21.416Z,73.95
2023-03-12T05:51:43.507Z,74.33
2023-03-12T05:54:05.097Z,74.85
2023-03-12T05:56:27.011Z,75.55
2023-03-12T05:58:49.978Z,76.04
2023-03-12T06:01:13.733Z,74.64
2023-03-12T06:03:35.287Z,74.55
2023-03-12T06:05:57.158Z,74.20
2023-03-12T06:08:18.649Z,73.36
2023-03-12T06:10:40.246Z,73.37
2023-03-12T06:13:01.688Z,73.22
2023-03-12T06:15:23.160Z,72.81
2023-03-12T06:17:44.761Z,73.30
2023-03-12T06:20:07.115Z,72.45
2023-03-12T06:22:29.539Z,72.88
2023-03-12T06:24:51.016Z,71.77
2023-03-12T06:27:12.725Z,71.64
2023-03-12T06:29:34.164Z,71.32
2023-03-12T06:31:56.101Z,71.57
2023-03-12T06:34:17.911Z,71.75
2023-03-12T06:36:39.448Z,71.34
2023-03-12T06:39:00.904Z,71.48
2023-03-12T06:41:22.396Z,71.78
2023-03-12T06:43:44.905Z,71.49
2023-03-12T06:46:08.642Z,71.43
2023-03-12T06:48:33.500Z,71.42
2023-03-12T06:50:55.401Z,71.60
2023-03-12T06:53:17.507Z,70.62
2023-03-12T06:55:39.194Z,69.44
2023-03-12T06:58:00.785Z,69.65
2023-03-12T07:00:22.528Z,70.40
2023-03-12T07:02:43.978Z,69.62
2023-03-12T07:05:05.929Z,68.91
2023-03-12T07:07:27.409Z,67.53
2023-03-12T07:09:48.837Z,66.34
2023-03-12T07:12:10.307Z,65.46
2023-03-12T07:14:31.768Z,65.49
2023-03-12T07:16:53.245Z,65.53
2023-03-12T07:19:14.860Z,65.61
2023-03-12T07:21:36.455Z,65.77
2023-03-12T07:23:58.195Z,66.09
2023-03-12T07:26:20.469Z,65.75
2023-03-12T07:28:41.938Z,64.14
2023-03-12T07:31:04.764Z,64.90
2023-03-12T07:33:26.435Z,65.14
2023-03-12T07:35:51.502Z,65.47
2023-03-12T07:38:13.883Z,64.16
2023-03-12T07:40:36.510Z,63.95
2023-03-12T07:42:59.020Z,62.63
2023-03-12T07:45:20.956Z,62.76
2023-03-12T07:47:42.603Z,61.68
2023-03-12T07:50:04.404Z,62.20
2023-03-12T07:52:26.264Z,61.09
2023-03-12T07:54:48.001Z,61.62
2023-03-12T07:57:09.671Z,60.50
2023-03-12T07:59:31.224Z,60.02
2023-03-12T08:01:52.775Z,60.16
2023-03-12T08:04:14.329Z,60.91
2023-03-12T08:06:35.935Z,59.37
2023-03-12T08:08:57.432Z,59.28
2023-03-12T08:11:19.202Z,59.09
2023-03-12T08:13:40.728Z,57.60
2023-03-12T08:16:02.194Z,56.97
2023-03-12T08:18:24.824Z,56.09
2023-03-12T08:20:50.077Z,57.29
2023-03-12T08:23:12.185Z,57.01
2023-03-12T08:25:33.629Z,57.22
2023-03-12T08:27:55.130Z,56.22
2023-03-12T08:30:16.838Z,56.18
2023-03-12T08:32:38.572Z,55.52
2023-03-12T08:35:00.165Z,54.56
2023-03-12T08:37:23.033Z,54.87
2023-03-12T08:39:44.563Z,54.76
2023-03-12T08:42:07.777Z,54.49
2023-03-12T08:44:29.721Z,54.31
2023-03-12T08:46:52.228Z,54.05
2023-03-12T08:49:14.073Z,53.91
2023-03-12T08:51:35.571Z,53.38
2023-03-12T08:53:57.399Z,54.11
2023-03-12T08:56:18.836Z,55.05
2023-03-12T08:58:40.372Z,55.16
2023-03-12T09:01:02.197Z,54.49
2023-03-12T09:03:24.358Z,54.28
2023-03-12T09:05:45.907Z,54.83
2023-03-12T09:08:08.451Z,53.90
2023-03-12T09:10:31.226Z,54.31
2023-03-12T09:12:52.845Z,53.64
2023-03-12T09:15:14.371Z,53.60
2023-03-12T09:17:35.980Z,52.42
2023-03-12T09:19:57.555Z,52.96
2023-03-12T09:22:19.022Z,53.75
2023-03-12T09:24:40.517Z,53.82
2023-03-12T09:27:02.556Z,53.98
2023-03-12T09:29:24.823Z,54.41
2023-03-12T09:31:46.265Z,53.43
2023-03-12T09:34:07.793Z,53.14
2023-03-12T09:36:29.233Z,52.91
2023-03-12T09:38:50.694Z,52.91
2023-03-12T09:41:25.288Z,51.49
2023-03-12T09:43:55.767Z,52.51
2023-03-12T09:46:26.956Z,52.58
2023-03-12T09:48:50.136Z,53.40
2023-03-12T09:51:28.687Z,52.85
2023-03-12T09:53:56.641Z,53.19
2023-03-12T09:56:20.497Z,52.62
2023-03-12T09:58:44.493Z,53.94
2023-03-12T10:01:12.020Z,54.37
2023-03-12T10:03:33.519Z,53.15
2023-03-12T10:06:01.477Z,53.09
2023-03-12T10:08:32.236Z,53.64
2023-03-12T10:10:58.927Z,54.17
2023-03-12T10:13:52.808Z,55.19
2023-03-12T10:16:18.769Z,54.91
2023-03-12T10:18:55.256Z,55.41
2023-03-12T10:21:42.334Z,55.51
2023-03-12T10:24:31.666Z,55.12
2023-03-12T10:26:57.320Z,55.12
2023-03-12T10:29:23.554Z,55.46
2023-03-12T10:32:00.383Z,55.53
2023-03-12T10:34:37.673Z,54.56
2023-03-12T10:37:03.425Z,55.31
2023-03-12T10:39:24.938Z,54.43
2023-03-12T10:41:48.394Z,54.18
2023-03-12T10:44:25.247Z,53.88
2023-03-12T10:47:07.134Z,53.76
2023-03-12T10:49:37.163Z,52.89
2023-03-12T10:52:16.312Z,52.85
2023-03-12T10:54:40.656Z,54.03
2023-03-12T10:57:02.608Z,54.73
2023-03-12T10:59:28.848Z,55.38
2023-03-12T11:01:52.603Z,55.87
2023-03-12T11:04:18.500Z,56.92
2023-03-12T11:06:40.092Z,56.87
2023-03-12T11:09:16.769Z,58.02
2023-03-12T11:11:38.899Z,57.41
2023-03-12T11:14:20.357Z,58.23
2023-03-12T11:16:42.223Z,59.01
2023-03-12T11:19:05.871Z,60.27
2023-03-12T11:21:29.041Z,59.63
2023-03-12T11:23:56.382Z,62.22
2023-03-12T11:26:20.840Z,63.99
2023-03-12T11:28:46.466Z,65.49
2023-03-12T11:31:37.232Z,64.88
2023-03-12T11:34:05.398Z,66.87
2023-03-12T11:36:41.940Z,69.65
2023-03-12T11:39:10.367Z,71.12
2023-03-12T11:41:59.137Z,71.62
2023-03-12T11:44:31.249Z,73.31
2023-03-12T11:47:06.376Z,73.13
2023-03-12T11:49:53.399Z,72.88
2023-03-12T11:52:23.066Z,73.70
2023-03-12T11:55:03.019Z,72.84
2023-03-12T11:57:35.111Z,73.93
2023-03-12T12:00:17.347Z,73.08
2023-03-12T12:03:23.819Z,72.75
2023-03-12T12:06:32.042Z,74.46
2023-03-12T12:09:25.442Z,76.12
2023-03-12T12:12:05.666Z,75.96
2023-03-12T12:14:42.085Z,77.75
2023-03-12T12:17:27.880Z,79.03
2023-03-12T12:20:09.345Z,77.96
2023-03-12T12:22:49.596Z,76.71
2023-03-12T12:25:17.163Z,78.29
2023-03-12T12:28:05.529Z,78.67
2023-03-12T12:30:52.315Z,80.13
2023-03-12T12:33:23.931Z,79.82
2023-03-12T12:35:45.792Z,81.24
2023-03-12T12:38:30.394Z,82.23
2023-03-12T12:40:55.557Z,83.55
2023-03-12T12:43:28.592Z,81.06
2023-03-12T12:45:52.955Z,79.02
2023-03-12T12:48:27.195Z,82.50
2023-03-12T12:50:51.419Z,81.32
2023-03-12T12:53:36.080Z,80.93
2023-03-12T12:56:16.337Z,81.16
2023-03-12T12:58:59.662Z,81.51
2023-03-12T13:01:21.505Z,83.93
2023-03-12T13:03:44.470Z,81.64
2023-03-12T13:06:07.380Z,82.00
2023-03-12T13:08:33.637Z,82.73
2023-03-12T13:11:02.460Z,78.67
2023-03-12T13:13:27.754Z,78.81
2023-03-12T13:15:49.790Z,80.70
2023-03-12T13:18:24.456Z,80.20
2023-03-12T13:20:51.783Z,79.96
2023-03-12T13:23:47.390Z,81.60
2023-03-12T13:26:23.374Z,84.30
2023-03-12T13:28:56.814Z,86.66
2023-03-12T13:31:21.197Z,86.66
2023-03-12T13:33:46.226Z,87.54
2023-03-12T13:36:23.591Z,89.41
2023-03-12T13:38:59.127Z,88.93
2023-03-12T13:41:38.268Z,86.30
2023-03-12T13:44:00.210Z,87.51
2023-03-12T13:46:34.101Z,88.22
2023-03-12T13:49:03.421Z,90.14
2023-03-12T13:51:25.952Z,89.92
2023-03-12T13:53:50.641Z,90.73
2023-03-12T13:56:16.866Z,89.13
2023-03-12T13:59:09.874Z,90.19
2023-03-12T14:01:36.831Z,88.59
2023-03-12T14:04:10.774Z,88.72
2023-03-12T14:06:47.837Z,89.92
2023-03-12T14:09:24.500Z,90.85
2023-03-12T14:12:06.235Z,89.51
2023-03-12T14:15:01.812Z,88.83
2023-03-12T14:17:25.546Z,89.58
2023-03-12T14:19:52.556Z,89.91
2023-03-12T14:22:14.615Z,90.20
2023-03-12T14:24:54.039Z,89.69
2023-03-12T14:27:21.407Z,89.94
2023-03-12T14:29:52.111Z,89.04
2023-03-12T14:32:21.907Z,89.35
2023-03-12T14:34:49.884Z,90.26
2023-03-12T14:37:16.390Z,89.16
2023-03-12T14:39:54.854Z,89.34
2023-03-12T14:42:36.598Z,89.14
2023-03-12T14:45:12.892Z,88.30
2023-03-12T14:47:41.792Z,89.98
2023-03-12T14:50:03.968Z,91.70
2023-03-12T14:52:30.593Z,90.67
2023-03-12T14:55:04.954Z,92.80
2023-03-12T14:57:26.996Z,92.09
2023-03-12T14:59:57.584Z,91.73
2023-03-12T15:02:20.395Z,91.86
2023-03-12T15:04:42.499Z,93.99
2023-03-12T15:07:06.564Z,95.70
2023-03-12T15:09:30.487Z,95.61
2023-03-12T15:12:04.087Z,95.65
2023-03-12T15:14:28.505Z,94.98
2023-03-12T15:16:50.783Z,95.87
2023-03-12T15:19:14.751Z,94.10
2023-03-12T15:21:36.399Z,93.48
2023-03-12T15:23:58.732Z,94.50
2023-03-12T15:26:20.125Z,96.65
2023-03-12T15:28:42.091Z,95.85
2023-03-12T15:31:06.746Z,95.59
2023-03-12T15:33:28.325Z,96.16
2023-03-12T15:36:02.010Z,96.55
2023-03-12T15:38:24.182Z,96.66
2023-03-12T15:40:51.317Z,96.77
2023-03-12T15:43:19.169Z,98.23
2023-03-12T15:45:40.799Z,97.81
2023-03-12T15:48:04.422Z,98.00
2023-03-12T15:50:41.845Z,97.44
2023-03-12T15:53:12.243Z,97.84
2023-03-12T15:55:35.594Z,98.40
2023-03-12T15:57:58.846Z,99.02
2023-03-12T16:00:20.654Z,98.68
2023-03-12T16:03:04.048Z,98.75
2023-03-12T16:05:33.239Z,98.98
2023-03-12T16:07:54.963Z,99.61
2023-03-12T16:10:19.935Z,97.94
2023-03-12T16:12:43.173Z,96.59
2023-03-12T16:15:05.044Z,95.54
2023-03-12T16:17:26.491Z,94.89
2023-03-12T16:19:47.934Z,94.04
2023-03-12T16:22:09.385Z,92.89
2023-03-12T16:24:31.935Z,94.07
2023-03-12T16:26:58.703Z,94.68
2023-03-12T16:29:21.298Z,94.07
2023-03-12T16:31:42.947Z,93.70
2023-03-12T16:34:04.472Z,93.35
2023-03-12T16:36:26.774Z,92.32
2023-03-12T16:38:48.315Z,91.55
2023-03-12T16:41:19.628Z,91.22
2023-03-12T16:43:43.076Z,91.04
2023-03-12T16:46:08.388Z,91.19
2023-03-12T16:48:29.925Z,90.21
2023-03-12T16:50:54.181Z,90.86
2023-03-12T16:53:16.300Z,91.72
2023-03-12T16:56:06.149Z,91.67
2023-03-12T16:58:29.436Z,93.29
2023-03-12T17:00:53.025Z,93.88
2023-03-12T17:03:43.643Z,97.26
2023-03-12T17:06:07.477Z,97.39
2023-03-12T17:08:29.057Z,97.49
2023-03-12T17:10:50.485Z,100.00
2023-03-12T17:13:20.604Z,100.00
2023-03-12T17:15:42.094Z,100.00
2023-03-12T17:18:04.477Z,100.00
2023-03-12T17:20:25.934Z,100.00
2023-03-12T17:22:48.162Z,100.00
2023-03-12T17:25:25.083Z,100.00
2023-03-12T17:27:46.626Z,100.00
2023-03-12T17:30:08.865Z,100.00
2023-03-12T17:32:30.643Z,100.00
2023-03-12T17:34:56.968Z,100.00
2023-03-12T17:37:18.422Z,100.00
2023-03-12T17:39:39.842Z,100.00
2023-03-12T17:42:01.382Z,100.00
2023-03-12T17:44:22.893Z,100.00
2023-03-12T17:46:56.538Z,100.00
2023-03-12T17:49:21.065Z,100.00
2023-03-12T17:51:42.551Z,100.00
2023-03-12T17:54:04.562Z,100.00
2023-03-12T17:56:26.009Z,100.00
2023-03-12T17:58:47.665Z,100.00
2023-03-12T18:01:09.108Z,100.00
2023-03-12T18:03:30.630Z,100.00
2023-03-12T18:05:52.086Z,100.00
2023-03-12T18:08:15.165Z,100.00
2023-03-12T18:10:40.568Z,100.00
2023-03-12T18:13:02.017Z,100.00
2023-03-12T18:15:23.497Z,100.00
2023-03-12T18:17:45.083Z,100.00
2023-03-12T18:20:09.864Z,100.00
2023-03-12T18:22:31.328Z,100.00
2023-03-12T18:24:52.810Z,100.00
2023-03-12T18:27:14.283Z,100.00
2023-03-12T18:29:36.889Z,100.00
2023-03-12T18:31:58.334Z,100.00
2023-03-12T18:34:20.779Z,100.00
2023-03-12T18:36:42.198Z,100.00
2023-03-12T18:39:05.034Z,100.00
2023-03-12T18:41:30.404Z,100.00
2023-03-12T18:43:53.874Z,100.00
2023-03-12T18:46:15.570Z,100.00
2023-03-12T18:48:37.066Z,100.00
2023-03-12T18:50:58.524Z,100.00
2023-03-12T18:53:20.107Z,100.00
2023-03-12T18:55:41.587Z,100.00
2023-03-12T18:58:03.059Z,100.00
2023-03-12T19:00:24.501Z,100.00
2023-03-12T19:02:47.961Z,100.00
2023-03-12T19:05:11.058Z,100.00
2023-03-12T19:07:33.050Z,100.00
2023-03-12T19:09:54.512Z,100.00
2023-03-12T19:12:16.040Z,100.00
2023-03-12T19:14:37.651Z,100.00
2023-03-12T19:16:59.136Z,100.00
2023-03-12T19:19:21.653Z,100.00
2023-03-12T19:21:43.098Z,100.00
2023-03-12T19:24:04.826Z,100.00
2023-03-12T19:26:26.304Z,100.00
2023-03-12T19:28:47.841Z,100.00
2023-03-12T19:31:12.069Z,100.00
2023-03-12T19:33:33.584Z,100.00
2023-03-12T19:35:55.131Z,100.00
2023-03-12T19:38:17.734Z,100.00
2023-03-12T19:40:39.253Z,100.00
2023-03-12T19:43:01.806Z,100.00
2023-03-12T19:45:23.268Z,100.00
2023-03-12T19:47:44.763Z,100.00
2023-03-12T19:50:08.142Z,100.00
2023-03-12T19:52:30.031Z,100.00
2023-03-12T19:55:03.371Z,100.00
2023-03-12T19:57:25.785Z,99.67
2023-03-12T19:59:47.271Z,99.89
2023-03-12T20:02:12.756Z,99.99
2023-03-12T20:04:34.231Z,99.50
2023-03-12T20:06:55.650Z,99.84
2023-03-12T20:09:17.124Z,99.20
2023-03-12T20:11:38.679Z,99.43
2023-03-12T20:14:00.205Z,99.85
2023-03-12T20:16:21.804Z,98.28
2023-03-12T20:18:43.432Z,99.29
2023-03-12T20:21:05.088Z,98.87
2023-03-12T20:23:26.614Z,98.14
2023-03-12T20:25:50.143Z,97.43
2023-03-12T20:28:11.589Z,97.55
2023-03-12T20:30:35.924Z,96.55
2023-03-12T20:32:57.458Z,96.83
2023-03-12T20:35:19.001Z,97.10
2023-03-12T20:37:40.525Z,96.48
2023-03-12T20:40:01.959Z,96.20
2023-03-12T20:42:23.494Z,94.47
2023-03-12T20:44:44.918Z,93.97
2023-03-12T20:47:06.375Z,93.94
2023-03-12T20:49:27.843Z,94.17
2023-03-12T20:51:49.321Z,94.80
2023-03-12T20:54:11.037Z,93.61
2023-03-12T20:56:32.470Z,93.77
2023-03-12T20:58:54.022Z,93.55
2023-03-12T21:01:15.589Z,93.47
2023-03-12T21:03:37.064Z,93.25
2023-03-12T21:06:01.221Z,92.28
2023-03-12T21:08:23.566Z,93.19
2023-03-12T21:10:44.985Z,93.41
2023-03-12T21:13:06.432Z,93.98
2023-03-12T21:15:27.910Z,93.67
2023-03-12T21:17:49.347Z,93.29
2023-03-12T21:20:13.466Z,93.03
2023-03-12T21:22:35.203Z,92.10
2023-03-12T21:24:56.716Z,93.48
2023-03-12T21:27:18.233Z,92.67
2023-03-12T21:29:39.676Z,92.06
2023-03-12T21:32:01.167Z,92.15
2023-03-12T21:34:23.374Z,91.82
2023-03-12T21:36:44.820Z,91.10
2023-03-12T21:39:06.267Z,89.73
2023-03-12T21:41:27.694Z,89.56
2023-03-12T21:43:49.186Z,89.31
2023-03-12T21:46:13.772Z,89.81
2023-03-12T21:48:36.266Z,89.87
2023-03-12T21:51:02.456Z,89.21
2023-03-12T21:53:24.285Z,89.00
2023-03-12T21:55:54.890Z,88.65
2023-03-12T21:58:16.372Z,88.27
2023-03-12T22:00:37.805Z,87.17
2023-03-12T22:02:59.244Z,87.09
2023-03-12T22:05:20.742Z,87.77
2023-03-12T22:07:42.205Z,88.70
2023-03-12T22:10:07.130Z,88.27
2023-03-12T22:12:28.629Z,88.95
2023-03-12T22:14:50.090Z,88.64
2023-03-12T22:17:11.481Z,87.94
2023-03-12T22:19:32.912Z,88.34
2023-03-12T22:21:54.363Z,87.73
2023-03-12T22:24:15.834Z,87.85
2023-03-12T22:26:37.309Z,88.17
2023-03-12T22:28:58.909Z,88.70
2023-03-12T22:31:22.091Z,88.14
2023-03-12T22:33:44.693Z,88.74
2023-03-12T22:36:08.489Z,88.29
2023-03-12T22:38:29.965Z,88.13
2023-03-12T22:40:53.707Z,88.16
2023-03-12T22:43:16.878Z,88.38
2023-03-12T22:45:38.302Z,87.98
2023-03-12T22:48:00.275Z,87.30
2023-03-12T22:50:23.295Z,86.34
2023-03-12T22:52:44.734Z,86.27
2023-03-12T22:55:06.606Z,86.97
2023-03-12T22:57:28.064Z,87.51
2023-03-12T22:59:49.492Z,87.95
2023-03-12T23:02:11.117Z,88.82
2023-03-12T23:04:32.663Z,88.98
2023-03-12T23:07:01.606Z,88.45
2023-03-12T23:09:33.038Z,89.72
2023-03-12T23:11:54.469Z,88.08
2023-03-12T23:14:15.957Z,88.36
2023-03-12T23:16:37.423Z,88.17
2023-03-12T23:19:00.013Z,88.30
2023-03-12T23:21:23.294Z,88.22
2023-03-12T23:23:45.285Z,88.00
2023-03-12T23:26:06.799Z,88.56
2023-03-12T23:28:29.840Z,88.75
2023-03-12T23:30:53.947Z,88.31
2023-03-12T23:33:15.385Z,88.78
2023-03-12T23:35:36.881Z,88.38
2023-03-12T23:37:59.171Z,87.67
2023-03-12T23:40:20.609Z,86.78
2023-03-12T23:42:42.048Z,85.61
2023-03-12T23:45:03.987Z,86.21
2023-03-12T23:47:25.415Z,86.63
2023-03-12T23:49:46.844Z,86.32
2023-03-12T23:52:08.304Z,85.61
2023-03-12T23:54:29.893Z,85.21
2023-03-12T23:56:51.350Z,85.22
2023-03-12T23:59:12.814Z,84.83
